Time;durP1;ratioP1;P1;durP2;ratioP2;P2;SDS_P1;SDS_P2;PMS_P1;PMS_P2;Temp;Humidity;BMP_temperature;BMP_pressure;BME280_temperature;BME280_humidity;BME280_pressure;Samples;Min_cycle;Max_cycle;Signal;HPM_P1;HPM_P2
2022/07/01 00:02:04;;;;;;;25.63;9.02;;;;;;;;;;5073746;28;20017;-75
2022/07/01 00:04:30;;;;;;;32.35;9.57;;;;;;;;;;5075351;28;20017;-75
2022/07/01 00:06:57;;;;;;;27.10;6.00;;;;;;;;;;5073414;28;20034;-74
2022/07/01 00:09:23;;;;;;;13.43;3.97;;;;;;;;;;5059635;28;20017;-74
2022/07/01 00:11:50;;;;;;;8.27;3.90;;;;;;;;;;5056200;28;20044;-75
2022/07/01 00:14:16;;;;;;;12.18;3.53;;;;;;;;;;5058018;28;20433;-75
2022/07/01 00:16:42;;;;;;;13.18;3.80;;;;;;;;;;5058417;28;20048;-76
2022/07/01 00:19:08;;;;;;;8.55;3.63;;;;;;;;;;5058327;28;20493;-75
2022/07/01 00:21:36;;;;;;;6.82;2.72;;;;;;;;;;5059372;28;20045;-76
2022/07/01 00:24:02;;;;;;;6.05;2.95;;;;;;;;;;5058288;28;20389;-75
2022/07/01 00:26:28;;;;;;;9.07;2.65;;;;;;;;;;5057431;28;20021;-75
2022/07/01 00:28:54;;;;;;;5.72;3.13;;;;;;;;;;5057482;28;20021;-74
2022/07/01 00:31:20;;;;;;;5.95;2.60;;;;;;;;;;5058394;28;20029;-75
2022/07/01 00:33:45;;;;;;;7.15;2.30;;;;;;;;;;5056934;28;20075;-74
2022/07/01 00:36:11;;;;;;;5.03;2.60;;;;;;;;;;5057919;28;20032;-75
2022/07/01 00:38:37;;;;;;;9.88;2.47;;;;;;;;;;5056998;28;20064;-76
2022/07/01 00:41:03;;;;;;;9.95;2.50;;;;;;;;;;5057243;28;20056;-75
2022/07/01 00:43:34;;;;;;;7.30;2.53;;;;;;;;;;5069250;22;20048;-71
2022/07/01 00:46:00;;;;;;;9.93;3.47;;;;;;;;;;5051558;28;20029;-71
2022/07/01 00:48:26;;;;;;;14.98;3.35;;;;;;;;;;5051636;28;20037;-71
2022/07/01 00:50:52;;;;;;;7.05;3.10;;;;;;;;;;5051425;28;20032;-72
2022/07/01 00:53:18;;;;;;;11.32;3.60;;;;;;;;;;5033724;28;20029;-70
2022/07/01 00:55:44;;;;;;;10.02;3.47;;;;;;;;;;5051559;28;20017;-71
2022/07/01 00:58:10;;;;;;;7.18;3.20;;;;;;;;;;5051764;28;20075;-72
2022/07/01 01:00:38;;;;;;;8.10;3.60;;;;;;;;;;5051658;28;20082;-73
2022/07/01 01:03:06;;;;;;;10.70;3.30;;;;;;;;;;5051262;28;20144;-71
2022/07/01 01:05:32;;;;;;;9.38;3.50;;;;;;;;;;5051284;28;20025;-72
2022/07/01 01:07:57;;;;;;;12.75;3.22;;;;;;;;;;5051481;28;20033;-72
2022/07/01 01:10:25;;;;;;;8.50;3.38;;;;;;;;;;5051562;28;20021;-71
2022/07/01 01:12:51;;;;;;;13.70;3.80;;;;;;;;;;5051611;28;20025;-72
2022/07/01 01:15:21;;;;;;;5.95;2.95;;;;;;;;;;5052294;28;20044;-72
2022/07/01 01:17:46;;;;;;;8.20;3.38;;;;;;;;;;5051883;28;20025;-72
2022/07/01 01:20:20;;;;;;;8.90;3.25;;;;;;;;;;5051910;28;20466;-72
2022/07/01 01:22:49;;;;;;;12.93;3.30;;;;;;;;;;5051529;28;20497;-72
2022/07/01 01:25:16;;;;;;;7.45;3.03;;;;;;;;;;5051921;28;20401;-72
2022/07/01 01:27:42;;;;;;;5.97;3.00;;;;;;;;;;5051583;28;20024;-70
2022/07/01 01:30:09;;;;;;;9.00;3.10;;;;;;;;;;5051666;28;20017;-71
2022/07/01 01:32:36;;;;;;;14.98;4.97;;;;;;;;;;5051914;28;20112;-71
2022/07/01 01:35:02;;;;;;;14.63;4.50;;;;;;;;;;5051040;28;20029;-72
2022/07/01 01:37:28;;;;;;;14.55;4.55;;;;;;;;;;5051758;28;20035;-72
2022/07/01 01:39:54;;;;;;;11.40;3.88;;;;;;;;;;5052280;28;20029;-72
2022/07/01 01:42:21;;;;;;;13.13;4.22;;;;;;;;;;5053108;28;20028;-72
2022/07/01 01:44:47;;;;;;;10.43;3.80;;;;;;;;;;5051133;28;20489;-72
2022/07/01 01:47:13;;;;;;;10.13;3.80;;;;;;;;;;5050848;28;20029;-71
2022/07/01 01:49:39;;;;;;;11.68;4.15;;;;;;;;;;5050955;28;20029;-71
2022/07/01 01:52:09;;;;;;;9.10;3.88;;;;;;;;;;5053348;28;20021;-71
2022/07/01 01:54:36;;;;;;;7.82;4.05;;;;;;;;;;5036560;28;20048;-70
2022/07/01 01:57:02;;;;;;;11.85;4.13;;;;;;;;;;5054633;28;20035;-72
2022/07/01 01:59:28;;;;;;;12.00;3.38;;;;;;;;;;5055041;28;20044;-71
2022/07/01 02:01:54;;;;;;;5.78;3.47;;;;;;;;;;5055562;28;20470;-72
2022/07/01 02:04:20;;;;;;;9.43;3.78;;;;;;;;;;5054645;28;20025;-71
2022/07/01 02:06:46;;;;;;;7.30;3.60;;;;;;;;;;5054220;28;20032;-71
2022/07/01 02:09:13;;;;;;;6.45;3.80;;;;;;;;;;5054419;28;20394;-70
2022/07/01 02:11:39;;;;;;;5.90;3.65;;;;;;;;;;5054331;28;20028;-70
2022/07/01 02:14:05;;;;;;;8.00;4.05;;;;;;;;;;5054252;28;20017;-71
2022/07/01 02:16:31;;;;;;;11.60;4.43;;;;;;;;;;5054694;28;20025;-71
2022/07/01 02:18:57;;;;;;;11.38;3.72;;;;;;;;;;5054382;28;20074;-71
2022/07/01 02:21:23;;;;;;;9.10;3.70;;;;;;;;;;5054315;28;20033;-70
2022/07/01 02:23:51;;;;;;;6.22;3.92;;;;;;;;;;5036062;28;20108;-70
2022/07/01 02:26:17;;;;;;;6.35;3.70;;;;;;;;;;5053952;28;20013;-72
2022/07/01 02:28:43;;;;;;;9.25;4.40;;;;;;;;;;5051151;28;20032;-72
2022/07/01 02:31:09;;;;;;;5.43;3.70;;;;;;;;;;5053706;28;20075;-72
2022/07/01 02:33:35;;;;;;;6.82;4.22;;;;;;;;;;5054096;28;20096;-71
2022/07/01 02:36:01;;;;;;;10.07;4.05;;;;;;;;;;5054473;28;20017;-72
2022/07/01 02:38:27;;;;;;;7.82;4.00;;;;;;;;;;5054513;28;20029;-72
2022/07/01 02:40:53;;;;;;;10.55;4.43;;;;;;;;;;5054507;28;20036;-73
2022/07/01 02:43:19;;;;;;;7.95;4.63;;;;;;;;;;5066551;28;20421;-74
2022/07/01 02:45:45;;;;;;;8.02;4.35;;;;;;;;;;5060959;28;20083;-73
2022/07/01 02:48:11;;;;;;;7.18;4.05;;;;;;;;;;5053624;28;20028;-72
2022/07/01 02:50:37;;;;;;;11.15;4.93;;;;;;;;;;5053423;28;20027;-72
2022/07/01 02:53:03;;;;;;;9.25;4.88;;;;;;;;;;5053398;28;20417;-74
2022/07/01 02:55:29;;;;;;;14.82;4.68;;;;;;;;;;5052990;28;20021;-72
2022/07/01 02:57:55;;;;;;;10.82;5.03;;;;;;;;;;5053505;28;20033;-72
2022/07/01 03:00:22;;;;;;;12.73;5.03;;;;;;;;;;5053205;28;20031;-72
2022/07/01 03:02:48;;;;;;;11.35;5.03;;;;;;;;;;5052090;28;20036;-73
2022/07/01 03:05:14;;;;;;;11.52;5.10;;;;;;;;;;5053121;28;20033;-72
2022/07/01 03:07:40;;;;;;;11.18;4.60;;;;;;;;;;5052797;28;20033;-72
2022/07/01 03:10:06;;;;;;;8.80;5.10;;;;;;;;;;5052932;28;20380;-72
2022/07/01 03:12:34;;;;;;;7.22;4.32;;;;;;;;;;5052981;28;20021;-74
2022/07/01 03:15:00;;;;;;;10.63;4.93;;;;;;;;;;5053464;28;20013;-73
2022/07/01 03:17:27;;;;;;;11.35;5.05;;;;;;;;;;5054299;28;20027;-74
2022/07/01 03:19:54;;;;;;;10.15;4.93;;;;;;;;;;5053361;28;20040;-73
2022/07/01 03:22:21;;;;;;;8.80;5.40;;;;;;;;;;5052930;28;20100;-71
2022/07/01 03:24:47;;;;;;;13.18;5.25;;;;;;;;;;5053326;28;20044;-71
2022/07/01 03:27:14;;;;;;;12.55;5.07;;;;;;;;;;5052962;28;20076;-72
2022/07/01 03:29:39;;;;;;;15.38;5.43;;;;;;;;;;5052786;28;20031;-75
2022/07/01 03:32:06;;;;;;;9.43;5.13;;;;;;;;;;5053495;28;20391;-72
2022/07/01 03:34:32;;;;;;;13.18;6.35;;;;;;;;;;5053751;28;20398;-73
2022/07/01 03:36:58;;;;;;;13.95;7.28;;;;;;;;;;5053900;28;20025;-72
2022/07/01 03:39:24;;;;;;;14.48;8.32;;;;;;;;;;5054137;28;20029;-74
2022/07/01 03:41:49;;;;;;;19.05;8.70;;;;;;;;;;5055686;28;20029;-72
2022/07/01 03:44:15;;;;;;;16.13;8.20;;;;;;;;;;5056135;28;20045;-72
2022/07/01 03:46:41;;;;;;;17.25;8.52;;;;;;;;;;5037282;28;20104;-73
2022/07/01 03:49:08;;;;;;;12.60;8.25;;;;;;;;;;5054664;28;20021;-71
2022/07/01 03:51:34;;;;;;;11.82;8.98;;;;;;;;;;5056218;28;20021;-71
2022/07/01 03:56:44;;;;;;;11.65;8.50;;;;;;;;;;5058287;28;20068;-74
2022/07/01 03:59:10;;;;;;;17.15;8.35;;;;;;;;;;5056268;28;20029;-75
2022/07/01 04:01:36;;;;;;;14.52;9.13;;;;;;;;;;5056353;28;20033;-74
2022/07/01 04:04:02;;;;;;;12.50;8.02;;;;;;;;;;5054722;28;20021;-73
2022/07/01 04:06:28;;;;;;;19.67;8.50;;;;;;;;;;5056291;28;20056;-74
2022/07/01 04:08:54;;;;;;;14.95;8.30;;;;;;;;;;5053189;28;20033;-73
2022/07/01 04:11:20;;;;;;;11.90;7.70;;;;;;;;;;5053234;28;20074;-75
2022/07/01 04:13:50;;;;;;;13.55;8.40;;;;;;;;;;5052957;28;20033;-74
2022/07/01 04:16:20;;;;;;;15.55;8.63;;;;;;;;;;5052139;28;20036;-72
2022/07/01 04:18:47;;;;;;;12.43;7.90;;;;;;;;;;5052359;28;20081;-74
2022/07/01 04:23:58;;;;;;;22.05;12.52;;;;;;;;;;5052008;28;20062;-72
2022/07/01 04:26:24;;;;;;;18.77;12.73;;;;;;;;;;5034757;28;20485;-72
2022/07/01 04:28:54;;;;;;;12.80;8.15;;;;;;;;;;5052291;28;20083;-72
2022/07/01 04:31:20;;;;;;;14.13;8.20;;;;;;;;;;5051991;28;20021;-73
2022/07/01 04:33:47;;;;;;;12.15;8.52;;;;;;;;;;5033934;28;20059;-73
2022/07/01 04:36:13;;;;;;;13.23;8.27;;;;;;;;;;5052204;28;20460;-72
2022/07/01 04:38:39;;;;;;;13.88;8.77;;;;;;;;;;5052543;28;20053;-74
2022/07/01 04:43:49;;;;;;;11.40;7.95;;;;;;;;;;5051999;28;20099;-76
2022/07/01 04:46:15;;;;;;;15.07;8.63;;;;;;;;;;5051845;28;20029;-74
2022/07/01 04:48:41;;;;;;;17.48;9.30;;;;;;;;;;5052867;28;20032;-75
2022/07/01 04:51:07;;;;;;;19.52;9.02;;;;;;;;;;5060149;28;20064;-74
2022/07/01 04:53:33;;;;;;;23.08;9.05;;;;;;;;;;5055690;28;20025;-76
2022/07/01 04:55:59;;;;;;;24.80;9.00;;;;;;;;;;5052818;28;20088;-74
2022/07/01 04:58:25;;;;;;;26.20;8.68;;;;;;;;;;5034981;28;20067;-72
2022/07/01 05:00:52;;;;;;;26.98;9.45;;;;;;;;;;5052410;28;20029;-72
2022/07/01 05:03:18;;;;;;;24.10;8.55;;;;;;;;;;5052907;28;20032;-73
2022/07/01 05:05:44;;;;;;;24.30;7.80;;;;;;;;;;5052224;28;20033;-72
2022/07/01 05:08:10;;;;;;;27.17;8.32;;;;;;;;;;5052717;28;20025;-72
2022/07/01 05:10:36;;;;;;;23.70;7.97;;;;;;;;;;5060108;28;20021;-72
2022/07/01 05:13:02;;;;;;;29.15;8.13;;;;;;;;;;5068943;28;20447;-72
2022/07/01 05:15:28;;;;;;;44.17;9.55;;;;;;;;;;5051864;28;20028;-72
2022/07/01 05:23:24;;;;;;;58.35;21.80;;;;;;;;;;5051780;28;20087;-72
2022/07/01 05:25:49;;;;;;;39.17;8.70;;;;;;;;;;5051401;28;20097;-72
2022/07/01 05:28:15;;;;;;;28.77;7.28;;;;;;;;;;5055696;28;20120;-69
2022/07/01 05:30:41;;;;;;;20.15;5.90;;;;;;;;;;5055713;28;20017;-71
2022/07/01 05:33:07;;;;;;;22.02;6.15;;;;;;;;;;5055663;28;20108;-70
2022/07/01 05:35:33;;;;;;;32.47;6.95;;;;;;;;;;5055045;28;20104;-71
2022/07/01 05:38:00;;;;;;;30.73;5.95;;;;;;;;;;5038821;28;20025;-71
2022/07/01 05:40:26;;;;;;;23.55;8.25;;;;;;;;;;5057343;28;20378;-70
2022/07/01 05:42:52;;;;;;;19.98;4.88;;;;;;;;;;5055004;28;20025;-72
2022/07/01 05:45:18;;;;;;;20.17;5.30;;;;;;;;;;5054876;28;20036;-71
2022/07/01 05:47:44;;;;;;;18.67;4.38;;;;;;;;;;5054722;28;20429;-73
2022/07/01 05:50:10;;;;;;;14.10;3.50;;;;;;;;;;5055122;28;20021;-70
2022/07/01 05:52:36;;;;;;;14.30;3.70;;;;;;;;;;5054950;28;20031;-71
2022/07/01 05:55:03;;;;;;;8.63;3.03;;;;;;;;;;5055523;28;20017;-71
2022/07/01 05:57:28;;;;;;;13.13;3.40;;;;;;;;;;5055185;28;20029;-72
2022/07/01 05:59:54;;;;;;;12.90;2.85;;;;;;;;;;5055040;28;20115;-73
2022/07/01 06:02:20;;;;;;;10.25;2.80;;;;;;;;;;5054788;28;20386;-71
2022/07/01 06:04:46;;;;;;;18.52;3.28;;;;;;;;;;5054479;28;20028;-71
2022/07/01 06:07:12;;;;;;;13.75;3.22;;;;;;;;;;5054421;28;20021;-72
2022/07/01 06:09:38;;;;;;;11.70;2.92;;;;;;;;;;5037434;28;20029;-72
2022/07/01 06:12:05;;;;;;;9.45;2.80;;;;;;;;;;5037619;28;20017;-71
2022/07/01 06:14:31;;;;;;;11.00;2.97;;;;;;;;;;5054498;28;20100;-71
2022/07/01 06:16:57;;;;;;;14.25;3.25;;;;;;;;;;5054578;28;20021;-72
2022/07/01 06:19:23;;;;;;;14.90;2.63;;;;;;;;;;5054867;28;20096;-70
2022/07/01 06:21:49;;;;;;;10.43;2.50;;;;;;;;;;5054319;28;20476;-70
2022/07/01 06:24:15;;;;;;;19.58;2.85;;;;;;;;;;5054224;28;20079;-70
2022/07/01 06:26:41;;;;;;;10.73;2.67;;;;;;;;;;5054016;28;20025;-71
2022/07/01 06:29:07;;;;;;;12.30;2.50;;;;;;;;;;5053941;28;20527;-72
2022/07/01 06:31:33;;;;;;;13.00;2.83;;;;;;;;;;5054032;28;20025;-72
2022/07/01 06:33:59;;;;;;;11.43;2.88;;;;;;;;;;5054367;28;20071;-71
2022/07/01 06:36:25;;;;;;;13.00;2.67;;;;;;;;;;5054074;28;20025;-72
2022/07/01 06:38:51;;;;;;;13.65;2.53;;;;;;;;;;5054621;28;20036;-72
2022/07/01 06:41:26;;;;;;;13.43;2.50;;;;;;;;;;5055049;28;20029;-72
2022/07/01 06:43:53;;;;;;;12.18;2.10;;;;;;;;;;5068812;23;20348;-76
2022/07/01 06:46:19;;;;;;;11.10;2.25;;;;;;;;;;5058508;28;20039;-76
2022/07/01 06:48:45;;;;;;;12.23;2.15;;;;;;;;;;5059395;28;20035;-76
2022/07/01 06:51:11;;;;;;;7.50;1.83;;;;;;;;;;5057802;28;20107;-77
2022/07/01 06:53:37;;;;;;;8.95;2.22;;;;;;;;;;5054988;28;20094;-76
2022/07/01 06:56:03;;;;;;;17.20;6.35;;;;;;;;;;5054300;28;20033;-76
2022/07/01 06:58:29;;;;;;;9.70;3.92;;;;;;;;;;5054115;28;20033;-77
2022/07/01 07:00:55;;;;;;;12.13;3.40;;;;;;;;;;5054112;28;20025;-78
2022/07/01 07:03:21;;;;;;;11.23;3.35;;;;;;;;;;5053809;28;20029;-76
2022/07/01 07:05:47;;;;;;;12.63;3.40;;;;;;;;;;5054978;28;20029;-76
2022/07/01 07:08:13;;;;;;;18.33;9.48;;;;;;;;;;5056947;28;20044;-76
2022/07/01 07:10:39;;;;;;;8.88;2.92;;;;;;;;;;5056418;28;20100;-76
2022/07/01 07:13:05;;;;;;;10.05;2.45;;;;;;;;;;5055632;28;20017;-78
2022/07/01 07:15:31;;;;;;;10.95;3.00;;;;;;;;;;5057732;28;20421;-78
2022/07/01 07:17:57;;;;;;;8.85;2.42;;;;;;;;;;5054955;28;20029;-78
2022/07/01 07:20:27;;;;;;;10.82;3.10;;;;;;;;;;5053940;28;20056;-76
2022/07/01 07:22:53;;;;;;;10.95;2.83;;;;;;;;;;5054104;28;20032;-76
2022/07/01 07:25:19;;;;;;;9.75;2.40;;;;;;;;;;5053939;28;20025;-76
2022/07/01 07:27:46;;;;;;;8.80;2.80;;;;;;;;;;5059544;28;20037;-78
2022/07/01 07:30:18;;;;;;;11.68;3.47;;;;;;;;;;5063662;28;20025;-76
2022/07/01 07:32:44;;;;;;;10.63;2.63;;;;;;;;;;5067256;28;20021;-77
2022/07/01 07:35:11;;;;;;;10.63;2.35;;;;;;;;;;5066316;28;20385;-75
2022/07/01 07:37:37;;;;;;;6.75;2.00;;;;;;;;;;5065466;28;20050;-76
2022/07/01 07:40:06;;;;;;;6.28;2.25;;;;;;;;;;5058815;28;20037;-77
2022/07/01 07:42:32;;;;;;;6.38;1.77;;;;;;;;;;5055281;28;20017;-79
2022/07/01 07:44:58;;;;;;;10.85;2.55;;;;;;;;;;5053373;28;20578;-77
2022/07/01 07:47:24;;;;;;;9.05;2.58;;;;;;;;;;5052965;28;20108;-75
2022/07/01 07:49:50;;;;;;;5.40;2.10;;;;;;;;;;5052762;28;20028;-76
2022/07/01 07:52:16;;;;;;;10.02;3.58;;;;;;;;;;5053163;28;20063;-76
2022/07/01 07:54:41;;;;;;;4.07;2.15;;;;;;;;;;5053357;28;20025;-75
2022/07/01 07:57:08;;;;;;;3.70;2.05;;;;;;;;;;5052665;28;20107;-76
2022/07/01 07:59:35;;;;;;;8.60;2.30;;;;;;;;;;5053827;28;20060;-75
2022/07/01 08:02:01;;;;;;;7.80;2.40;;;;;;;;;;5053098;28;20032;-76
2022/07/01 08:04:26;;;;;;;8.77;2.85;;;;;;;;;;5052737;28;20450;-77
2022/07/01 08:06:52;;;;;;;11.38;3.33;;;;;;;;;;5052655;28;20052;-77
2022/07/01 08:09:18;;;;;;;14.25;3.13;;;;;;;;;;5053570;28;20478;-77
2022/07/01 08:11:45;;;;;;;8.32;2.20;;;;;;;;;;5055842;28;20059;-76
2022/07/01 08:14:11;;;;;;;5.15;2.38;;;;;;;;;;5057793;28;20021;-77
2022/07/01 08:16:37;;;;;;;5.35;2.60;;;;;;;;;;5052016;28;20027;-76
2022/07/01 08:19:03;;;;;;;5.95;2.03;;;;;;;;;;5053820;28;20025;-76
2022/07/01 08:21:29;;;;;;;6.53;2.70;;;;;;;;;;5054190;28;20028;-77
2022/07/01 08:23:55;;;;;;;9.38;2.67;;;;;;;;;;5053949;28;20116;-78
2022/07/01 08:26:21;;;;;;;11.30;2.47;;;;;;;;;;5056313;28;20052;-80
2022/07/01 08:28:47;;;;;;;4.50;2.40;;;;;;;;;;5057216;28;20037;-77
2022/07/01 08:31:13;;;;;;;9.95;2.90;;;;;;;;;;5056253;28;20032;-76
2022/07/01 08:33:40;;;;;;;7.90;2.58;;;;;;;;;;5055999;28;20104;-76
2022/07/01 08:36:07;;;;;;;8.70;2.97;;;;;;;;;;5054554;28;20465;-76
2022/07/01 08:38:33;;;;;;;7.18;2.72;;;;;;;;;;5055142;28;20036;-76
2022/07/01 08:41:01;;;;;;;11.35;3.28;;;;;;;;;;5055494;28;20061;-75
2022/07/01 08:43:27;;;;;;;7.82;2.75;;;;;;;;;;5053507;28;20507;-77
2022/07/01 08:45:53;;;;;;;10.73;3.13;;;;;;;;;;5054602;28;20080;-77
2022/07/01 08:48:19;;;;;;;7.35;3.53;;;;;;;;;;5062263;28;20028;-77
2022/07/01 08:50:45;;;;;;;8.48;3.40;;;;;;;;;;5057000;28;20032;-76
2022/07/01 08:53:12;;;;;;;9.77;2.83;;;;;;;;;;5055866;28;20063;-76
2022/07/01 08:58:25;;;;;;;7.45;4.22;;;;;;;;;;5073637;28;20067;-77
2022/07/01 09:00:51;;;;;;;10.82;3.40;;;;;;;;;;5055143;28;20567;-78
2022/07/01 09:03:21;;;;;;;6.40;2.50;;;;;;;;;;5055535;28;20029;-78
2022/07/01 09:05:51;;;;;;;7.55;2.75;;;;;;;;;;5055005;28;20029;-77
2022/07/01 09:08:17;;;;;;;5.43;3.20;;;;;;;;;;5056489;28;20055;-77
2022/07/01 09:10:43;;;;;;;5.18;3.05;;;;;;;;;;5055560;28;20017;-76
2022/07/01 09:13:11;;;;;;;8.18;3.00;;;;;;;;;;5056862;28;20514;-76
2022/07/01 09:15:37;;;;;;;7.53;2.90;;;;;;;;;;5056423;28;20032;-77
2022/07/01 09:18:12;;;;;;;7.60;2.97;;;;;;;;;;5056401;28;20071;-77
2022/07/01 09:20:42;;;;;;;7.07;3.13;;;;;;;;;;5057241;28;20083;-78
2022/07/01 09:23:12;;;;;;;4.40;2.67;;;;;;;;;;5056975;28;20032;-77
2022/07/01 09:25:43;;;;;;;4.78;2.55;;;;;;;;;;5058056;28;20086;-77
2022/07/01 09:28:19;;;;;;;7.72;3.05;;;;;;;;;;5059303;28;20028;-78
2022/07/01 09:30:47;;;;;;;9.07;3.25;;;;;;;;;;5060793;28;20373;-78
2022/07/01 09:33:17;;;;;;;6.03;3.30;;;;;;;;;;5057470;28;20382;-76
2022/07/01 09:35:44;;;;;;;6.88;2.92;;;;;;;;;;5056756;28;20025;-78
2022/07/01 09:38:12;;;;;;;8.35;2.70;;;;;;;;;;5056319;28;20124;-77
2022/07/01 09:40:50;;;;;;;6.88;3.15;;;;;;;;;;5054352;28;20025;-77
2022/07/01 09:43:24;;;;;;;5.65;3.38;;;;;;;;;;5057056;28;20032;-78
2022/07/01 09:45:51;;;;;;;7.53;3.00;;;;;;;;;;5055822;28;20032;-77
2022/07/01 09:48:17;;;;;;;7.20;3.10;;;;;;;;;;5056272;28;20079;-78
2022/07/01 09:50:44;;;;;;;9.25;5.82;;;;;;;;;;5056892;28;20029;-78
2022/07/01 09:53:10;;;;;;;5.88;3.58;;;;;;;;;;5056943;28;20021;-76
2022/07/01 09:55:36;;;;;;;5.15;2.55;;;;;;;;;;5056785;28;20025;-76
2022/07/01 09:58:03;;;;;;;6.03;2.60;;;;;;;;;;5055752;28;20033;-79
2022/07/01 10:00:31;;;;;;;7.57;3.00;;;;;;;;;;5056820;28;20082;-76
2022/07/01 10:02:57;;;;;;;8.25;3.03;;;;;;;;;;5054433;28;20127;-77
2022/07/01 10:05:24;;;;;;;6.60;3.55;;;;;;;;;;5055528;28;20055;-78
2022/07/01 10:08:19;;;;;;;7.05;3.15;;;;;;;;;;5056057;28;20474;-77
2022/07/01 10:11:02;;;;;;;5.18;3.05;;;;;;;;;;5019022;28;20053;-77
2022/07/01 10:13:28;;;;;;;4.88;3.15;;;;;;;;;;5055468;28;20023;-77
2022/07/01 10:15:56;;;;;;;11.23;4.13;;;;;;;;;;5055522;28;20059;-78
2022/07/01 10:18:23;;;;;;;8.02;3.83;;;;;;;;;;5055483;28;20383;-77
2022/07/01 10:20:50;;;;;;;9.02;3.28;;;;;;;;;;5055410;28;20100;-78
2022/07/01 10:23:16;;;;;;;7.45;3.65;;;;;;;;;;5055473;28;20151;-78
2022/07/01 10:25:43;;;;;;;8.20;3.47;;;;;;;;;;5055333;28;20021;-77
2022/07/01 10:28:21;;;;;;;10.18;4.50;;;;;;;;;;5055783;28;20025;-77
2022/07/01 10:30:50;;;;;;;8.80;3.85;;;;;;;;;;5055611;28;20483;-76
2022/07/01 10:33:34;;;;;;;7.25;3.45;;;;;;;;;;5054947;28;20025;-76
2022/07/01 10:36:23;;;;;;;7.30;3.55;;;;;;;;;;5054437;28;20051;-79
2022/07/01 10:41:28;;;;;;;16.42;7.18;;;;;;;;;;5067306;28;20035;-77
2022/07/01 10:43:55;;;;;;;18.17;7.78;;;;;;;;;;5064237;28;20119;-77
2022/07/01 10:46:41;;;;;;;10.07;5.50;;;;;;;;;;5055051;28;20028;-76
2022/07/01 10:49:08;;;;;;;10.32;5.63;;;;;;;;;;5058038;28;20021;-77
2022/07/01 10:51:50;;;;;;;10.63;5.72;;;;;;;;;;5054637;28;20048;-76
2022/07/01 10:54:35;;;;;;;7.60;3.88;;;;;;;;;;5055001;28;20053;-76
2022/07/01 10:57:16;;;;;;;9.82;4.78;;;;;;;;;;5055363;28;20021;-77
2022/07/01 10:59:48;;;;;;;15.50;5.38;;;;;;;;;;5055016;28;20071;-76
2022/07/01 11:02:24;;;;;;;12.57;4.95;;;;;;;;;;5053973;28;20389;-77
2022/07/01 11:04:52;;;;;;;9.32;5.03;;;;;;;;;;5055251;28;20021;-78
2022/07/01 11:07:18;;;;;;;21.08;6.88;;;;;;;;;;5053843;28;20065;-78
2022/07/01 11:09:44;;;;;;;10.73;4.80;;;;;;;;;;5058992;28;20021;-77
2022/07/01 11:12:11;;;;;;;8.57;5.85;;;;;;;;;;5064557;28;20025;-77
2022/07/01 11:14:38;;;;;;;13.57;5.13;;;;;;;;;;5071487;28;20116;-75
2022/07/01 11:17:11;;;;;;;11.27;4.70;;;;;;;;;;5061965;28;20076;-76
2022/07/01 11:19:37;;;;;;;12.73;4.80;;;;;;;;;;5064473;28;20036;-77
2022/07/01 11:22:05;;;;;;;17.52;8.55;;;;;;;;;;5063535;28;20064;-76
2022/07/01 11:24:31;;;;;;;10.35;4.75;;;;;;;;;;5061600;28;20104;-74
2022/07/01 11:27:06;;;;;;;9.70;5.43;;;;;;;;;;5060937;28;20025;-77
2022/07/01 11:29:32;;;;;;;9.07;4.88;;;;;;;;;;5059902;28;20013;-76
2022/07/01 11:31:58;;;;;;;8.23;5.20;;;;;;;;;;5059218;28;20371;-76
2022/07/01 11:34:27;;;;;;;10.55;6.15;;;;;;;;;;5060566;28;20067;-76
2022/07/01 11:39:41;;;;;;;12.77;6.22;;;;;;;;;;5085585;28;20040;-77
2022/07/01 11:42:07;;;;;;;10.80;5.35;;;;;;;;;;5056470;28;20020;-79
2022/07/01 11:44:40;;;;;;;12.15;6.35;;;;;;;;;;5129103;27;20376;-75
2022/07/01 11:47:08;;;;;;;18.88;6.85;;;;;;;;;;5120633;28;20032;-77
2022/07/01 11:49:36;;;;;;;12.60;5.65;;;;;;;;;;5121793;28;20035;-76
2022/07/01 11:52:06;;;;;;;10.45;5.32;;;;;;;;;;5112656;28;20499;-77
2022/07/01 11:54:38;;;;;;;10.52;4.97;;;;;;;;;;5111135;28;20024;-78
2022/07/01 11:57:08;;;;;;;12.07;4.78;;;;;;;;;;5109108;28;20388;-77
2022/07/01 11:59:34;;;;;;;13.20;4.53;;;;;;;;;;5110440;28;20400;-79
2022/07/01 12:02:00;;;;;;;11.15;4.80;;;;;;;;;;5111052;28;20023;-77
2022/07/01 12:04:26;;;;;;;10.43;4.68;;;;;;;;;;5110429;28;20034;-77
2022/07/01 12:06:52;;;;;;;10.43;4.68;;;;;;;;;;5109089;28;20031;-77
2022/07/01 12:09:20;;;;;;;10.20;4.40;;;;;;;;;;5111531;28;20088;-78
2022/07/01 12:11:50;;;;;;;8.82;4.78;;;;;;;;;;5111201;28;20022;-80
2022/07/01 12:14:35;;;;;;;19.25;10.32;;;;;;;;;;5109618;28;20516;-76
2022/07/01 12:17:01;;;;;;;;;;;;;;;;;;5112507;28;20031;-78
2022/07/01 12:19:47;;;;;;;12.43;4.90;;;;;;;;;;5120327;28;19892;-78
2022/07/01 12:22:15;;;;;;;8.63;4.28;;;;;;;;;;5133512;28;20043;-78
2022/07/01 12:24:41;;;;;;;9.88;5.22;;;;;;;;;;5119494;28;20460;-77
2022/07/01 12:27:08;;;;;;;12.82;4.47;;;;;;;;;;5129586;28;20035;-77
2022/07/01 12:29:40;;;;;;;12.60;4.82;;;;;;;;;;5131270;28;20020;-76
2022/07/01 12:32:07;;;;;;;14.18;4.70;;;;;;;;;;5132663;28;20031;-77
2022/07/01 12:34:46;;;;;;;8.82;4.75;;;;;;;;;;5125929;28;20031;-75
2022/07/01 12:37:15;;;;;;;9.13;5.18;;;;;;;;;;5111048;28;20027;-77
2022/07/01 12:39:42;;;;;;;25.40;17.02;;;;;;;;;;5111162;28;20028;-79
2022/07/01 12:42:08;;;;;;;16.90;8.77;;;;;;;;;;5110618;28;20361;-78
2022/07/01 12:44:34;;;;;;;8.60;4.63;;;;;;;;;;5110159;28;20035;-76
2022/07/01 12:47:16;;;;;;;14.23;5.20;;;;;;;;;;5109277;28;20469;-75
2022/07/01 12:49:42;;;;;;;10.73;4.15;;;;;;;;;;5110939;28;20106;-76
2022/07/01 12:52:23;;;;;;;11.50;4.65;;;;;;;;;;5109795;28;20059;-77
2022/07/01 12:54:49;;;;;;;9.10;3.97;;;;;;;;;;5106987;28;20046;-75
2022/07/01 12:57:15;;;;;;;15.70;4.82;;;;;;;;;;5102644;28;20032;-77
2022/07/01 12:59:41;;;;;;;10.63;5.10;;;;;;;;;;5102846;28;20027;-77
2022/07/01 13:02:07;;;;;;;7.95;4.30;;;;;;;;;;5107880;28;20024;-77
2022/07/01 13:04:33;;;;;;;9.75;5.65;;;;;;;;;;5116837;28;20031;-78
2022/07/01 13:06:59;;;;;;;9.43;5.55;;;;;;;;;;5114812;28;20024;-77
2022/07/01 13:09:25;;;;;;;12.23;5.80;;;;;;;;;;5115222;28;20062;-77
2022/07/01 13:11:51;;;;;;;9.50;5.00;;;;;;;;;;5116793;28;20032;-77
2022/07/01 13:14:17;;;;;;;10.52;4.75;;;;;;;;;;5103727;28;20045;-78
2022/07/01 13:16:43;;;;;;;7.95;4.40;;;;;;;;;;5104506;28;20024;-77
2022/07/01 13:19:09;;;;;;;10.00;4.70;;;;;;;;;;5106937;28;20024;-77
2022/07/01 13:21:35;;;;;;;14.50;5.35;;;;;;;;;;5106696;28;20047;-76
2022/07/01 13:24:01;;;;;;;7.53;4.28;;;;;;;;;;5106310;28;20129;-76
2022/07/01 13:26:27;;;;;;;12.65;4.95;;;;;;;;;;5104660;28;20055;-75
2022/07/01 13:28:53;;;;;;;8.95;4.65;;;;;;;;;;5106392;28;20024;-76
2022/07/01 13:31:19;;;;;;;9.82;5.68;;;;;;;;;;5106899;28;20051;-76
2022/07/01 13:33:45;;;;;;;11.65;4.50;;;;;;;;;;5106185;28;20039;-77
2022/07/01 13:36:11;;;;;;;8.57;3.45;;;;;;;;;;5101042;28;20024;-77
2022/07/01 13:38:37;;;;;;;9.48;4.57;;;;;;;;;;5098763;28;20063;-76
2022/07/01 13:41:03;;;;;;;10.50;3.92;;;;;;;;;;5100354;28;20386;-76
2022/07/01 13:43:29;;;;;;;9.00;4.18;;;;;;;;;;5097202;28;20036;-76
2022/07/01 13:45:55;;;;;;;6.13;3.97;;;;;;;;;;5095336;28;20028;-75
2022/07/01 13:48:21;;;;;;;9.30;5.00;;;;;;;;;;5099206;28;20024;-76
2022/07/01 13:50:47;;;;;;;9.48;4.13;;;;;;;;;;5099896;28;20050;-77
2022/07/01 13:53:13;;;;;;;9.10;4.97;;;;;;;;;;5097414;28;20028;-75
2022/07/01 13:55:39;;;;;;;8.85;4.32;;;;;;;;;;5098455;28;20113;-76
2022/07/01 13:58:05;;;;;;;11.27;5.63;;;;;;;;;;5100391;28;20039;-75
2022/07/01 14:00:31;;;;;;;9.38;4.97;;;;;;;;;;5099432;28;20028;-76
2022/07/01 14:02:57;;;;;;;11.32;5.32;;;;;;;;;;5097724;28;20024;-76
2022/07/01 14:05:23;;;;;;;13.07;4.95;;;;;;;;;;5106755;28;20024;-76
2022/07/01 14:07:49;;;;;;;9.98;4.47;;;;;;;;;;5108633;28;20028;-75
2022/07/01 14:10:16;;;;;;;11.25;4.88;;;;;;;;;;5109336;28;20020;-74
2022/07/01 14:12:41;;;;;;;10.38;5.45;;;;;;;;;;5111934;28;20377;-73
2022/07/01 14:15:08;;;;;;;11.30;4.80;;;;;;;;;;5103689;28;20027;-77
2022/07/01 14:17:34;;;;;;;11.07;4.43;;;;;;;;;;5100328;28;20013;-77
2022/07/01 14:20:00;;;;;;;15.93;5.40;;;;;;;;;;5100130;28;20027;-77
2022/07/01 14:22:26;;;;;;;11.50;6.15;;;;;;;;;;5100819;28;20071;-77
2022/07/01 14:24:52;;;;;;;14.55;7.57;;;;;;;;;;5099374;28;20138;-77
2022/07/01 14:27:19;;;;;;;12.50;5.70;;;;;;;;;;5091487;28;20024;-79
2022/07/01 14:29:45;;;;;;;13.27;5.40;;;;;;;;;;5101380;28;20051;-76
2022/07/01 14:32:11;;;;;;;11.68;5.32;;;;;;;;;;5108488;28;20034;-75
2022/07/01 14:34:37;;;;;;;13.45;4.47;;;;;;;;;;5105152;28;20032;-75
2022/07/01 14:37:03;;;;;;;10.25;4.55;;;;;;;;;;5106270;28;20032;-74
2022/07/01 14:39:29;;;;;;;9.40;5.07;;;;;;;;;;5106153;28;20028;-75
2022/07/01 14:41:56;;;;;;;11.05;4.78;;;;;;;;;;5115094;28;20019;-74
2022/07/01 14:44:22;;;;;;;10.25;4.95;;;;;;;;;;5114446;28;20032;-74
2022/07/01 14:46:48;;;;;;;11.57;5.07;;;;;;;;;;5114268;28;20031;-76
2022/07/01 14:49:17;;;;;;;8.05;4.70;;;;;;;;;;5106561;28;20016;-75
2022/07/01 14:51:43;;;;;;;10.98;5.40;;;;;;;;;;5099896;28;20036;-75
2022/07/01 14:54:09;;;;;;;12.73;6.25;;;;;;;;;;5100493;28;20064;-76
2022/07/01 14:56:35;;;;;;;15.98;5.78;;;;;;;;;;5103437;28;20020;-75
2022/07/01 14:59:01;;;;;;;11.63;6.30;;;;;;;;;;5101049;28;20020;-76